sensor_id;sensor_type;location;lat;lon;timestamp;P1;durP1;ratioP1;P2;durP2;ratioP2
15043;SDS011;7619;48.562;8.910;2023-10-13T00:01:36;4.20;;;2.97;;
15043;SDS011;7619;48.562;8.910;2023-10-13T00:04:05;3.40;;;2.70;;
15043;SDS011;7619;48.562;8.910;2023-10-13T00:06:35;3.23;;;1.97;;
15043;SDS011;7619;48.562;8.910;2023-10-13T00:09:04;7.33;;;2.70;;
15043;SDS011;7619;48.562;8.910;2023-10-13T00:11:32;3.23;;;2.53;;
15043;SDS011;7619;48.562;8.910;2023-10-13T00:14:00;4.83;;;2.57;;
15043;SDS011;7619;48.562;8.910;2023-10-13T00:16:30;4.73;;;2.33;;
15043;SDS011;7619;48.562;8.910;2023-10-13T00:18:59;5.70;;;2.33;;
15043;SDS011;7619;48.562;8.910;2023-10-13T00:21:27;4.60;;;2.47;;
15043;SDS011;7619;48.562;8.910;2023-10-13T00:23:59;3.77;;;2.90;;
15043;SDS011;7619;48.562;8.910;2023-10-13T00:26:30;5.70;;;2.80;;
15043;SDS011;7619;48.562;8.910;2023-10-13T00:28:58;4.77;;;2.70;;
15043;SDS011;7619;48.562;8.910;2023-10-13T00:31:28;3.73;;;2.43;;
15043;SDS011;7619;48.562;8.910;2023-10-13T00:33:58;4.30;;;2.70;;
15043;SDS011;7619;48.562;8.910;2023-10-13T00:36:28;3.37;;;2.53;;
15043;SDS011;7619;48.562;8.910;2023-10-13T00:38:58;6.53;;;2.30;;
15043;SDS011;7619;48.562;8.910;2023-10-13T00:41:26;6.57;;;2.40;;
15043;SDS011;7619;48.562;8.910;2023-10-13T00:44:03;7.03;;;2.07;;
15043;SDS011;7619;48.562;8.910;2023-10-13T00:46:32;3.83;;;2.37;;
15043;SDS011;7619;48.562;8.910;2023-10-13T00:49:02;3.47;;;2.20;;
15043;SDS011;7619;48.562;8.910;2023-10-13T00:51:32;4.63;;;1.93;;
15043;SDS011;7619;48.562;8.910;2023-10-13T00:54:03;3.53;;;2.20;;
15043;SDS011;7619;48.562;8.910;2023-10-13T00:56:34;3.27;;;2.20;;
15043;SDS011;7619;48.562;8.910;2023-10-13T00:59:05;6.03;;;2.33;;
15043;SDS011;7619;48.562;8.910;2023-10-13T01:01:35;3.93;;;2.23;;
15043;SDS011;7619;48.562;8.910;2023-10-13T01:04:05;5.87;;;2.57;;
15043;SDS011;7619;48.562;8.910;2023-10-13T01:06:35;4.37;;;2.90;;
15043;SDS011;7619;48.562;8.910;2023-10-13T01:09:05;5.37;;;2.77;;
15043;SDS011;7619;48.562;8.910;2023-10-13T01:11:42;3.27;;;2.50;;
15043;SDS011;7619;48.562;8.910;2023-10-13T01:14:11;2.57;;;1.97;;
15043;SDS011;7619;48.562;8.910;2023-10-13T01:16:41;4.40;;;2.40;;
15043;SDS011;7619;48.562;8.910;2023-10-13T01:19:11;4.90;;;3.17;;
15043;SDS011;7619;48.562;8.910;2023-10-13T01:21:40;2.93;;;2.47;;
15043;SDS011;7619;48.562;8.910;2023-10-13T01:24:08;5.87;;;2.97;;
15043;SDS011;7619;48.562;8.910;2023-10-13T01:26:38;4.90;;;2.67;;
15043;SDS011;7619;48.562;8.910;2023-10-13T01:29:08;6.03;;;2.80;;
15043;SDS011;7619;48.562;8.910;2023-10-13T01:31:39;6.13;;;2.60;;
15043;SDS011;7619;48.562;8.910;2023-10-13T01:34:10;5.57;;;2.83;;
15043;SDS011;7619;48.562;8.910;2023-10-13T01:36:39;4.87;;;2.40;;
15043;SDS011;7619;48.562;8.910;2023-10-13T01:39:08;4.73;;;2.60;;
15043;SDS011;7619;48.562;8.910;2023-10-13T01:41:39;3.73;;;2.33;;
15043;SDS011;7619;48.562;8.910;2023-10-13T01:44:08;4.97;;;2.80;;
15043;SDS011;7619;48.562;8.910;2023-10-13T01:46:38;3.67;;;2.57;;
15043;SDS011;7619;48.562;8.910;2023-10-13T01:49:08;4.00;;;2.70;;
15043;SDS011;7619;48.562;8.910;2023-10-13T01:51:38;6.73;;;3.00;;
15043;SDS011;7619;48.562;8.910;2023-10-13T01:54:06;3.57;;;2.50;;
15043;SDS011;7619;48.562;8.910;2023-10-13T01:56:36;5.40;;;2.37;;
15043;SDS011;7619;48.562;8.910;2023-10-13T01:59:06;4.60;;;2.93;;
15043;SDS011;7619;48.562;8.910;2023-10-13T02:01:35;5.40;;;3.03;;
15043;SDS011;7619;48.562;8.910;2023-10-13T02:04:04;5.77;;;2.77;;
15043;SDS011;7619;48.562;8.910;2023-10-13T02:06:33;4.60;;;2.50;;
15043;SDS011;7619;48.562;8.910;2023-10-13T02:09:03;5.10;;;3.47;;
15043;SDS011;7619;48.562;8.910;2023-10-13T02:11:38;4.00;;;2.70;;
15043;SDS011;7619;48.562;8.910;2023-10-13T02:14:06;3.30;;;2.70;;
15043;SDS011;7619;48.562;8.910;2023-10-13T02:16:34;2.77;;;2.17;;
15043;SDS011;7619;48.562;8.910;2023-10-13T02:19:03;3.30;;;2.60;;
15043;SDS011;7619;48.562;8.910;2023-10-13T02:21:32;6.70;;;2.67;;
15043;SDS011;7619;48.562;8.910;2023-10-13T02:24:01;6.63;;;2.77;;
15043;SDS011;7619;48.562;8.910;2023-10-13T02:26:31;4.67;;;2.80;;
15043;SDS011;7619;48.562;8.910;2023-10-13T02:29:01;5.37;;;2.73;;
15043;SDS011;7619;48.562;8.910;2023-10-13T02:31:31;5.73;;;2.93;;
15043;SDS011;7619;48.562;8.910;2023-10-13T02:34:00;3.77;;;2.60;;
15043;SDS011;7619;48.562;8.910;2023-10-13T02:36:31;5.30;;;2.60;;
15043;SDS011;7619;48.562;8.910;2023-10-13T02:39:04;5.53;;;3.43;;
15043;SDS011;7619;48.562;8.910;2023-10-13T02:41:34;6.57;;;2.90;;
15043;SDS011;7619;48.562;8.910;2023-10-13T02:44:04;4.07;;;2.60;;
15043;SDS011;7619;48.562;8.910;2023-10-13T02:46:33;5.47;;;2.60;;
15043;SDS011;7619;48.562;8.910;2023-10-13T02:49:04;6.23;;;3.40;;
15043;SDS011;7619;48.562;8.910;2023-10-13T02:51:37;5.93;;;2.60;;
15043;SDS011;7619;48.562;8.910;2023-10-13T02:54:07;4.03;;;3.07;;
15043;SDS011;7619;48.562;8.910;2023-10-13T02:56:37;5.50;;;3.00;;
15043;SDS011;7619;48.562;8.910;2023-10-13T02:59:09;6.03;;;3.23;;
15043;SDS011;7619;48.562;8.910;2023-10-13T03:01:38;3.73;;;2.97;;
15043;SDS011;7619;48.562;8.910;2023-10-13T03:04:07;4.13;;;2.80;;
15043;SDS011;7619;48.562;8.910;2023-10-13T03:06:35;4.33;;;2.90;;
15043;SDS011;7619;48.562;8.910;2023-10-13T03:09:07;5.63;;;2.87;;
15043;SDS011;7619;48.562;8.910;2023-10-13T03:11:41;6.00;;;2.80;;
15043;SDS011;7619;48.562;8.910;2023-10-13T03:14:11;3.77;;;2.23;;
15043;SDS011;7619;48.562;8.910;2023-10-13T03:16:41;6.43;;;3.00;;
15043;SDS011;7619;48.562;8.910;2023-10-13T03:19:10;4.73;;;2.80;;
15043;SDS011;7619;48.562;8.910;2023-10-13T03:21:38;6.03;;;3.27;;
15043;SDS011;7619;48.562;8.910;2023-10-13T03:24:08;4.90;;;2.73;;
15043;SDS011;7619;48.562;8.910;2023-10-13T03:26:37;3.00;;;2.70;;
15043;SDS011;7619;48.562;8.910;2023-10-13T03:29:07;4.50;;;2.70;;
15043;SDS011;7619;48.562;8.910;2023-10-13T03:31:37;3.90;;;2.80;;
15043;SDS011;7619;48.562;8.910;2023-10-13T03:34:06;5.10;;;2.83;;
15043;SDS011;7619;48.562;8.910;2023-10-13T03:36:37;3.10;;;2.80;;
15043;SDS011;7619;48.562;8.910;2023-10-13T03:39:24;4.73;;;2.37;;
15043;SDS011;7619;48.562;8.910;2023-10-13T03:41:56;4.27;;;2.70;;
15043;SDS011;7619;48.562;8.910;2023-10-13T03:44:26;3.83;;;2.60;;
15043;SDS011;7619;48.562;8.910;2023-10-13T03:46:57;4.13;;;2.57;;
15043;SDS011;7619;48.562;8.910;2023-10-13T03:49:28;3.40;;;2.70;;
15043;SDS011;7619;48.562;8.910;2023-10-13T03:51:57;3.87;;;2.87;;
15043;SDS011;7619;48.562;8.910;2023-10-13T03:54:25;3.47;;;2.77;;
15043;SDS011;7619;48.562;8.910;2023-10-13T03:56:55;4.77;;;2.50;;
15043;SDS011;7619;48.562;8.910;2023-10-13T03:59:23;3.50;;;2.87;;
15043;SDS011;7619;48.562;8.910;2023-10-13T04:01:53;7.37;;;3.57;;
15043;SDS011;7619;48.562;8.910;2023-10-13T04:04:26;6.50;;;3.63;;
15043;SDS011;7619;48.562;8.910;2023-10-13T04:07:05;3.93;;;3.17;;
15043;SDS011;7619;48.562;8.910;2023-10-13T04:09:51;4.70;;;2.93;;
15043;SDS011;7619;48.562;8.910;2023-10-13T04:12:57;7.27;;;3.53;;
15043;SDS011;7619;48.562;8.910;2023-10-13T04:15:43;7.23;;;3.07;;
15043;SDS011;7619;48.562;8.910;2023-10-13T04:20:53;5.43;;;3.20;;
15043;SDS011;7619;48.562;8.910;2023-10-13T04:23:24;6.47;;;3.73;;
15043;SDS011;7619;48.562;8.910;2023-10-13T04:25:54;7.83;;;3.77;;
15043;SDS011;7619;48.562;8.910;2023-10-13T04:28:36;4.13;;;2.87;;
15043;SDS011;7619;48.562;8.910;2023-10-13T04:31:18;5.80;;;3.87;;
15043;SDS011;7619;48.562;8.910;2023-10-13T04:33:54;5.07;;;3.33;;
15043;SDS011;7619;48.562;8.910;2023-10-13T04:36:25;6.87;;;3.33;;
15043;SDS011;7619;48.562;8.910;2023-10-13T04:39:07;8.63;;;3.60;;
15043;SDS011;7619;48.562;8.910;2023-10-13T04:41:41;11.40;;;3.70;;
15043;SDS011;7619;48.562;8.910;2023-10-13T04:44:10;4.27;;;3.33;;
15043;SDS011;7619;48.562;8.910;2023-10-13T04:46:53;5.10;;;3.20;;
15043;SDS011;7619;48.562;8.910;2023-10-13T04:49:23;5.67;;;2.93;;
15043;SDS011;7619;48.562;8.910;2023-10-13T04:51:55;4.80;;;3.10;;
15043;SDS011;7619;48.562;8.910;2023-10-13T04:54:28;5.97;;;3.40;;
15043;SDS011;7619;48.562;8.910;2023-10-13T04:57:01;5.60;;;3.40;;
15043;SDS011;7619;48.562;8.910;2023-10-13T04:59:47;4.23;;;3.37;;
15043;SDS011;7619;48.562;8.910;2023-10-13T05:02:33;5.77;;;3.80;;
15043;SDS011;7619;48.562;8.910;2023-10-13T05:05:19;8.33;;;4.97;;
15043;SDS011;7619;48.562;8.910;2023-10-13T05:08:09;6.83;;;4.30;;
15043;SDS011;7619;48.562;8.910;2023-10-13T05:10:55;5.13;;;3.80;;
15043;SDS011;7619;48.562;8.910;2023-10-13T05:13:41;6.87;;;3.73;;
15043;SDS011;7619;48.562;8.910;2023-10-13T05:16:27;6.70;;;4.10;;
15043;SDS011;7619;48.562;8.910;2023-10-13T05:19:13;9.27;;;4.00;;
15043;SDS011;7619;48.562;8.910;2023-10-13T05:21:58;4.20;;;3.20;;
15043;SDS011;7619;48.562;8.910;2023-10-13T05:24:44;4.13;;;3.30;;
15043;SDS011;7619;48.562;8.910;2023-10-13T05:27:30;7.07;;;3.80;;
15043;SDS011;7619;48.562;8.910;2023-10-13T05:30:16;6.30;;;4.20;;
15043;SDS011;7619;48.562;8.910;2023-10-13T05:33:03;7.03;;;3.70;;
15043;SDS011;7619;48.562;8.910;2023-10-13T05:35:49;8.37;;;4.17;;
15043;SDS011;7619;48.562;8.910;2023-10-13T05:38:35;11.83;;;4.50;;
15043;SDS011;7619;48.562;8.910;2023-10-13T05:41:21;7.97;;;4.23;;
15043;SDS011;7619;48.562;8.910;2023-10-13T05:44:07;6.50;;;4.03;;
15043;SDS011;7619;48.562;8.910;2023-10-13T05:46:53;3.70;;;3.30;;
15043;SDS011;7619;48.562;8.910;2023-10-13T05:49:40;8.27;;;4.07;;
15043;SDS011;7619;48.562;8.910;2023-10-13T05:52:17;5.43;;;3.00;;
15043;SDS011;7619;48.562;8.910;2023-10-13T05:55:07;12.63;;;4.00;;
15043;SDS011;7619;48.562;8.910;2023-10-13T05:57:53;7.67;;;3.77;;
15043;SDS011;7619;48.562;8.910;2023-10-13T06:00:39;9.37;;;3.70;;
15043;SDS011;7619;48.562;8.910;2023-10-13T06:03:25;10.63;;;3.13;;
15043;SDS011;7619;48.562;8.910;2023-10-13T06:06:11;7.93;;;3.37;;
15043;SDS011;7619;48.562;8.910;2023-10-13T06:08:57;7.83;;;3.33;;
15043;SDS011;7619;48.562;8.910;2023-10-13T06:11:43;4.37;;;2.93;;
15043;SDS011;7619;48.562;8.910;2023-10-13T06:14:29;6.87;;;3.13;;
15043;SDS011;7619;48.562;8.910;2023-10-13T06:17:15;7.50;;;3.10;;
15043;SDS011;7619;48.562;8.910;2023-10-13T06:20:01;5.43;;;2.90;;
15043;SDS011;7619;48.562;8.910;2023-10-13T06:22:47;4.57;;;3.13;;
15043;SDS011;7619;48.562;8.910;2023-10-13T06:25:33;5.30;;;2.87;;
15043;SDS011;7619;48.562;8.910;2023-10-13T06:28:20;6.70;;;2.70;;
15043;SDS011;7619;48.562;8.910;2023-10-13T06:31:06;4.80;;;2.57;;
15043;SDS011;7619;48.562;8.910;2023-10-13T06:36:10;4.03;;;2.90;;
15043;SDS011;7619;48.562;8.910;2023-10-13T06:38:38;7.47;;;2.70;;
15043;SDS011;7619;48.562;8.910;2023-10-13T06:41:08;6.17;;;2.80;;
15043;SDS011;7619;48.562;8.910;2023-10-13T06:43:38;4.63;;;2.60;;
15043;SDS011;7619;48.562;8.910;2023-10-13T06:46:07;5.83;;;2.70;;
15043;SDS011;7619;48.562;8.910;2023-10-13T06:48:37;2.87;;;2.53;;
15043;SDS011;7619;48.562;8.910;2023-10-13T06:51:07;4.87;;;2.70;;
15043;SDS011;7619;48.562;8.910;2023-10-13T06:53:41;5.03;;;3.70;;
15043;SDS011;7619;48.562;8.910;2023-10-13T06:56:11;3.87;;;2.70;;
15043;SDS011;7619;48.562;8.910;2023-10-13T06:58:40;4.50;;;2.77;;
15043;SDS011;7619;48.562;8.910;2023-10-13T07:01:10;5.83;;;2.83;;
15043;SDS011;7619;48.562;8.910;2023-10-13T07:03:40;5.37;;;2.53;;
15043;SDS011;7619;48.562;8.910;2023-10-13T07:06:08;5.00;;;3.03;;
15043;SDS011;7619;48.562;8.910;2023-10-13T07:08:38;5.10;;;3.00;;
15043;SDS011;7619;48.562;8.910;2023-10-13T07:11:06;5.70;;;3.07;;
15043;SDS011;7619;48.562;8.910;2023-10-13T07:13:36;6.30;;;2.87;;
15043;SDS011;7619;48.562;8.910;2023-10-13T07:16:06;7.23;;;2.90;;
15043;SDS011;7619;48.562;8.910;2023-10-13T07:18:36;8.10;;;3.33;;
15043;SDS011;7619;48.562;8.910;2023-10-13T07:21:08;5.37;;;2.97;;
15043;SDS011;7619;48.562;8.910;2023-10-13T07:23:37;4.43;;;2.50;;
15043;SDS011;7619;48.562;8.910;2023-10-13T07:26:05;5.53;;;3.53;;
15043;SDS011;7619;48.562;8.910;2023-10-13T07:28:35;6.20;;;3.20;;
15043;SDS011;7619;48.562;8.910;2023-10-13T07:31:03;7.40;;;2.73;;
15043;SDS011;7619;48.562;8.910;2023-10-13T07:33:39;5.27;;;2.60;;
15043;SDS011;7619;48.562;8.910;2023-10-13T07:36:08;6.77;;;2.77;;
15043;SDS011;7619;48.562;8.910;2023-10-13T07:38:40;7.00;;;3.00;;
15043;SDS011;7619;48.562;8.910;2023-10-13T07:41:09;5.47;;;3.00;;
15043;SDS011;7619;48.562;8.910;2023-10-13T07:43:39;5.50;;;2.60;;
15043;SDS011;7619;48.562;8.910;2023-10-13T07:46:07;4.90;;;3.03;;
15043;SDS011;7619;48.562;8.910;2023-10-13T07:48:39;6.17;;;3.50;;
15043;SDS011;7619;48.562;8.910;2023-10-13T07:51:08;7.47;;;3.47;;
15043;SDS011;7619;48.562;8.910;2023-10-13T07:53:39;5.13;;;2.97;;
15043;SDS011;7619;48.562;8.910;2023-10-13T07:56:09;4.63;;;2.60;;
15043;SDS011;7619;48.562;8.910;2023-10-13T07:58:38;7.40;;;3.10;;
15043;SDS011;7619;48.562;8.910;2023-10-13T08:01:16;7.73;;;2.87;;
15043;SDS011;7619;48.562;8.910;2023-10-13T08:03:45;5.10;;;2.67;;
15043;SDS011;7619;48.562;8.910;2023-10-13T08:06:14;3.17;;;2.70;;
15043;SDS011;7619;48.562;8.910;2023-10-13T08:08:55;5.43;;;2.83;;
15043;SDS011;7619;48.562;8.910;2023-10-13T08:11:27;5.60;;;2.70;;
15043;SDS011;7619;48.562;8.910;2023-10-13T08:14:00;5.40;;;2.93;;
15043;SDS011;7619;48.562;8.910;2023-10-13T08:16:31;6.63;;;3.20;;
15043;SDS011;7619;48.562;8.910;2023-10-13T08:19:13;6.30;;;2.97;;
15043;SDS011;7619;48.562;8.910;2023-10-13T08:21:42;5.80;;;2.57;;
15043;SDS011;7619;48.562;8.910;2023-10-13T08:24:13;5.07;;;2.80;;
15043;SDS011;7619;48.562;8.910;2023-10-13T08:26:42;3.97;;;2.80;;
15043;SDS011;7619;48.562;8.910;2023-10-13T08:29:28;6.50;;;2.70;;
15043;SDS011;7619;48.562;8.910;2023-10-13T08:32:14;5.40;;;2.53;;
15043;SDS011;7619;48.562;8.910;2023-10-13T08:34:46;7.13;;;2.77;;
15043;SDS011;7619;48.562;8.910;2023-10-13T08:37:30;3.07;;;2.50;;
15043;SDS011;7619;48.562;8.910;2023-10-13T08:40:00;5.57;;;2.60;;
15043;SDS011;7619;48.562;8.910;2023-10-13T08:42:46;4.80;;;2.50;;
15043;SDS011;7619;48.562;8.910;2023-10-13T08:45:22;6.10;;;2.53;;
15043;SDS011;7619;48.562;8.910;2023-10-13T08:47:55;4.97;;;2.40;;
15043;SDS011;7619;48.562;8.910;2023-10-13T08:50:26;5.17;;;2.53;;
15043;SDS011;7619;48.562;8.910;2023-10-13T08:53:00;3.90;;;2.37;;
15043;SDS011;7619;48.562;8.910;2023-10-13T08:55:30;8.20;;;2.10;;
15043;SDS011;7619;48.562;8.910;2023-10-13T08:58:07;2.97;;;2.27;;
15043;SDS011;7619;48.562;8.910;2023-10-13T09:00:40;9.50;;;2.77;;
15043;SDS011;7619;48.562;8.910;2023-10-13T09:03:27;6.90;;;2.90;;
15043;SDS011;7619;48.562;8.910;2023-10-13T09:06:10;6.60;;;2.83;;
15043;SDS011;7619;48.562;8.910;2023-10-13T09:08:40;7.50;;;2.47;;
15043;SDS011;7619;48.562;8.910;2023-10-13T09:11:13;4.47;;;2.27;;
15043;SDS011;7619;48.562;8.910;2023-10-13T09:13:43;4.03;;;2.10;;
15043;SDS011;7619;48.562;8.910;2023-10-13T09:16:12;4.50;;;2.57;;
15043;SDS011;7619;48.562;8.910;2023-10-13T09:18:45;3.30;;;2.10;;
15043;SDS011;7619;48.562;8.910;2023-10-13T09:21:18;8.90;;;2.70;;
15043;SDS011;7619;48.562;8.910;2023-10-13T09:24:05;6.30;;;2.33;;
15043;SDS011;7619;48.562;8.910;2023-10-13T09:26:57;5.90;;;2.27;;
15043;SDS011;7619;48.562;8.910;2023-10-13T09:29:27;6.10;;;2.43;;
15043;SDS011;7619;48.562;8.910;2023-10-13T09:31:59;4.50;;;2.33;;
15043;SDS011;7619;48.562;8.910;2023-10-13T09:34:28;4.57;;;2.43;;
15043;SDS011;7619;48.562;8.910;2023-10-13T09:36:59;6.10;;;2.27;;
15043;SDS011;7619;48.562;8.910;2023-10-13T09:39:29;4.97;;;2.23;;
15043;SDS011;7619;48.562;8.910;2023-10-13T09:41:59;4.93;;;2.20;;
15043;SDS011;7619;48.562;8.910;2023-10-13T09:44:28;5.00;;;1.77;;
15043;SDS011;7619;48.562;8.910;2023-10-13T09:49:28;3.57;;;2.23;;
15043;SDS011;7619;48.562;8.910;2023-10-13T09:52:02;5.67;;;2.33;;
15043;SDS011;7619;48.562;8.910;2023-10-13T09:54:34;3.93;;;2.27;;
15043;SDS011;7619;48.562;8.910;2023-10-13T09:57:04;5.03;;;2.23;;
15043;SDS011;7619;48.562;8.910;2023-10-13T09:59:35;6.47;;;2.00;;
15043;SDS011;7619;48.562;8.910;2023-10-13T10:02:08;4.40;;;2.20;;
15043;SDS011;7619;48.562;8.910;2023-10-13T10:04:37;5.10;;;2.13;;
15043;SDS011;7619;48.562;8.910;2023-10-13T10:07:07;4.93;;;2.07;;
15043;SDS011;7619;48.562;8.910;2023-10-13T10:09:35;3.80;;;1.90;;
15043;SDS011;7619;48.562;8.910;2023-10-13T10:12:11;7.17;;;2.27;;
15043;SDS011;7619;48.562;8.910;2023-10-13T10:14:52;4.27;;;1.70;;
15043;SDS011;7619;48.562;8.910;2023-10-13T10:17:21;5.50;;;2.47;;
15043;SDS011;7619;48.562;8.910;2023-10-13T10:19:50;3.37;;;2.20;;
15043;SDS011;7619;48.562;8.910;2023-10-13T10:22:27;7.17;;;2.40;;
15043;SDS011;7619;48.562;8.910;2023-10-13T10:24:58;3.67;;;2.10;;
15043;SDS011;7619;48.562;8.910;2023-10-13T10:27:27;3.50;;;2.23;;
15043;SDS011;7619;48.562;8.910;2023-10-13T10:29:56;3.37;;;2.20;;
15043;SDS011;7619;48.562;8.910;2023-10-13T10:32:34;3.50;;;2.10;;
15043;SDS011;7619;48.562;8.910;2023-10-13T10:37:40;4.77;;;2.30;;
15043;SDS011;7619;48.562;8.910;2023-10-13T10:40:13;4.63;;;1.90;;
15043;SDS011;7619;48.562;8.910;2023-10-13T10:42:50;3.13;;;1.90;;
15043;SDS011;7619;48.562;8.910;2023-10-13T10:45:18;6.23;;;2.10;;
15043;SDS011;7619;48.562;8.910;2023-10-13T10:47:48;3.17;;;1.80;;
15043;SDS011;7619;48.562;8.910;2023-10-13T10:50:25;4.60;;;2.20;;
15043;SDS011;7619;48.562;8.910;2023-10-13T10:52:55;5.73;;;1.93;;
15043;SDS011;7619;48.562;8.910;2023-10-13T10:55:24;5.37;;;2.07;;
15043;SDS011;7619;48.562;8.910;2023-10-13T10:57:58;4.70;;;2.20;;
15043;SDS011;7619;48.562;8.910;2023-10-13T11:00:28;4.10;;;1.93;;
15043;SDS011;7619;48.562;8.910;2023-10-13T11:02:57;4.47;;;2.27;;
15043;SDS011;7619;48.562;8.910;2023-10-13T11:05:26;5.27;;;2.10;;
15043;SDS011;7619;48.562;8.910;2023-10-13T11:07:55;8.50;;;2.43;;
15043;SDS011;7619;48.562;8.910;2023-10-13T11:10:23;5.33;;;2.43;;
15043;SDS011;7619;48.562;8.910;2023-10-13T11:12:55;6.37;;;2.13;;
15043;SDS011;7619;48.562;8.910;2023-10-13T11:15:23;3.70;;;1.83;;
15043;SDS011;7619;48.562;8.910;2023-10-13T11:17:53;4.07;;;2.03;;
15043;SDS011;7619;48.562;8.910;2023-10-13T11:20:22;6.00;;;2.50;;
15043;SDS011;7619;48.562;8.910;2023-10-13T11:22:53;8.03;;;2.17;;
15043;SDS011;7619;48.562;8.910;2023-10-13T11:25:21;4.03;;;2.07;;
15043;SDS011;7619;48.562;8.910;2023-10-13T11:27:50;4.87;;;2.10;;
15043;SDS011;7619;48.562;8.910;2023-10-13T11:30:25;5.17;;;2.27;;
15043;SDS011;7619;48.562;8.910;2023-10-13T11:32:58;4.67;;;2.40;;
15043;SDS011;7619;48.562;8.910;2023-10-13T11:35:27;4.37;;;2.03;;
15043;SDS011;7619;48.562;8.910;2023-10-13T11:37:59;3.57;;;2.10;;
15043;SDS011;7619;48.562;8.910;2023-10-13T11:40:30;7.47;;;2.10;;
15043;SDS011;7619;48.562;8.910;2023-10-13T11:43:20;5.70;;;2.40;;
15043;SDS011;7619;48.562;8.910;2023-10-13T11:45:50;6.77;;;2.10;;
15043;SDS011;7619;48.562;8.910;2023-10-13T11:48:21;3.10;;;2.10;;
15043;SDS011;7619;48.562;8.910;2023-10-13T11:50:53;3.27;;;2.20;;
15043;SDS011;7619;48.562;8.910;2023-10-13T11:53:21;3.83;;;2.53;;
15043;SDS011;7619;48.562;8.910;2023-10-13T11:55:49;5.60;;;1.97;;
15043;SDS011;7619;48.562;8.910;2023-10-13T11:58:17;5.47;;;2.10;;
15043;SDS011;7619;48.562;8.910;2023-10-13T12:00:45;5.87;;;2.37;;
15043;SDS011;7619;48.562;8.910;2023-10-13T12:03:22;4.80;;;1.63;;
15043;SDS011;7619;48.562;8.910;2023-10-13T12:06:09;2.60;;;1.60;;
15043;SDS011;7619;48.562;8.910;2023-10-13T12:08:47;3.90;;;2.17;;
15043;SDS011;7619;48.562;8.910;2023-10-13T12:11:19;4.00;;;2.37;;
15043;SDS011;7619;48.562;8.910;2023-10-13T12:14:00;3.57;;;2.20;;
15043;SDS011;7619;48.562;8.910;2023-10-13T12:16:30;4.47;;;2.10;;
15043;SDS011;7619;48.562;8.910;2023-10-13T12:19:01;4.67;;;2.10;;
15043;SDS011;7619;48.562;8.910;2023-10-13T12:21:29;3.53;;;2.53;;
15043;SDS011;7619;48.562;8.910;2023-10-13T12:23:57;4.40;;;2.47;;
15043;SDS011;7619;48.562;8.910;2023-10-13T12:26:27;5.03;;;2.03;;
15043;SDS011;7619;48.562;8.910;2023-10-13T12:28:59;3.90;;;1.97;;
15043;SDS011;7619;48.562;8.910;2023-10-13T12:31:33;3.50;;;2.17;;
15043;SDS011;7619;48.562;8.910;2023-10-13T12:34:03;4.37;;;2.10;;
15043;SDS011;7619;48.562;8.910;2023-10-13T12:36:33;2.33;;;1.97;;
15043;SDS011;7619;48.562;8.910;2023-10-13T12:39:08;13.90;;;2.27;;
15043;SDS011;7619;48.562;8.910;2023-10-13T12:41:54;6.10;;;2.13;;
15043;SDS011;7619;48.562;8.910;2023-10-13T12:44:40;3.50;;;2.20;;
15043;SDS011;7619;48.562;8.910;2023-10-13T12:47:32;3.40;;;1.77;;
15043;SDS011;7619;48.562;8.910;2023-10-13T12:50:25;3.27;;;1.87;;
15043;SDS011;7619;48.562;8.910;2023-10-13T12:52:55;5.37;;;2.07;;
15043;SDS011;7619;48.562;8.910;2023-10-13T12:55:23;2.90;;;2.13;;
15043;SDS011;7619;48.562;8.910;2023-10-13T12:57:52;2.03;;;1.83;;
15043;SDS011;7619;48.562;8.910;2023-10-13T13:00:20;2.23;;;1.67;;
15043;SDS011;7619;48.562;8.910;2023-10-13T13:02:51;2.97;;;2.00;;
15043;SDS011;7619;48.562;8.910;2023-10-13T13:05:22;3.00;;;2.33;;
15043;SDS011;7619;48.562;8.910;2023-10-13T13:07:52;3.10;;;1.77;;
15043;SDS011;7619;48.562;8.910;2023-10-13T13:12:57;6.00;;;2.03;;
15043;SDS011;7619;48.562;8.910;2023-10-13T13:15:25;3.10;;;1.90;;
15043;SDS011;7619;48.562;8.910;2023-10-13T13:17:53;4.67;;;2.10;;
15043;SDS011;7619;48.562;8.910;2023-10-13T13:20:21;4.97;;;1.80;;
15043;SDS011;7619;48.562;8.910;2023-10-13T13:22:58;4.00;;;2.23;;
15043;SDS011;7619;48.562;8.910;2023-10-13T13:25:29;2.80;;;2.10;;
15043;SDS011;7619;48.562;8.910;2023-10-13T13:27:58;3.03;;;2.03;;
15043;SDS011;7619;48.562;8.910;2023-10-13T13:30:29;3.40;;;2.10;;
15043;SDS011;7619;48.562;8.910;2023-10-13T13:33:01;3.63;;;2.00;;
15043;SDS011;7619;48.562;8.910;2023-10-13T13:35:33;5.23;;;2.10;;
15043;SDS011;7619;48.562;8.910;2023-10-13T13:38:05;2.67;;;2.00;;
15043;SDS011;7619;48.562;8.910;2023-10-13T13:40:37;2.70;;;2.03;;
15043;SDS011;7619;48.562;8.910;2023-10-13T13:43:06;3.67;;;1.90;;
15043;SDS011;7619;48.562;8.910;2023-10-13T13:45:34;3.30;;;1.60;;
15043;SDS011;7619;48.562;8.910;2023-10-13T13:48:04;3.80;;;1.70;;
15043;SDS011;7619;48.562;8.910;2023-10-13T13:50:37;2.73;;;1.60;;
15043;SDS011;7619;48.562;8.910;2023-10-13T13:53:06;3.07;;;1.83;;
15043;SDS011;7619;48.562;8.910;2023-10-13T13:55:36;3.30;;;2.00;;
15043;SDS011;7619;48.562;8.910;2023-10-13T13:58:06;6.27;;;1.90;;
15043;SDS011;7619;48.562;8.910;2023-10-13T14:00:37;4.60;;;2.10;;
15043;SDS011;7619;48.562;8.910;2023-10-13T14:03:07;4.23;;;1.83;;
15043;SDS011;7619;48.562;8.910;2023-10-13T14:05:40;2.73;;;1.60;;
15043;SDS011;7619;48.562;8.910;2023-10-13T14:08:09;3.40;;;1.77;;
15043;SDS011;7619;48.562;8.910;2023-10-13T14:10:41;2.67;;;1.90;;
15043;SDS011;7619;48.562;8.910;2023-10-13T14:13:28;2.60;;;1.75;;
15043;SDS011;7619;48.562;8.910;2023-10-13T14:16:15;1.90;;;1.80;;
15043;SDS011;7619;48.562;8.910;2023-10-13T14:18:44;7.10;;;1.83;;
15043;SDS011;7619;48.562;8.910;2023-10-13T14:21:13;2.73;;;1.70;;
15043;SDS011;7619;48.562;8.910;2023-10-13T14:23:44;6.30;;;1.93;;
15043;SDS011;7619;48.562;8.910;2023-10-13T14:26:13;1.97;;;1.30;;
15043;SDS011;7619;48.562;8.910;2023-10-13T14:28:42;2.13;;;1.60;;
15043;SDS011;7619;48.562;8.910;2023-10-13T14:31:18;2.07;;;1.50;;
15043;SDS011;7619;48.562;8.910;2023-10-13T14:33:47;4.50;;;1.77;;
15043;SDS011;7619;48.562;8.910;2023-10-13T14:36:15;4.40;;;1.50;;
15043;SDS011;7619;48.562;8.910;2023-10-13T14:38:45;2.83;;;1.83;;
15043;SDS011;7619;48.562;8.910;2023-10-13T14:41:16;2.13;;;1.60;;
15043;SDS011;7619;48.562;8.910;2023-10-13T14:43:44;3.10;;;1.70;;
15043;SDS011;7619;48.562;8.910;2023-10-13T14:46:15;1.43;;;1.30;;
15043;SDS011;7619;48.562;8.910;2023-10-13T14:48:43;3.10;;;1.63;;
15043;SDS011;7619;48.562;8.910;2023-10-13T14:51:12;2.17;;;1.60;;
15043;SDS011;7619;48.562;8.910;2023-10-13T14:53:40;1.93;;;1.43;;
15043;SDS011;7619;48.562;8.910;2023-10-13T14:56:11;3.90;;;1.60;;
15043;SDS011;7619;48.562;8.910;2023-10-13T14:58:39;2.63;;;1.47;;
15043;SDS011;7619;48.562;8.910;2023-10-13T15:01:12;2.57;;;1.40;;
15043;SDS011;7619;48.562;8.910;2023-10-13T15:03:42;3.43;;;1.80;;
15043;SDS011;7619;48.562;8.910;2023-10-13T15:06:20;3.00;;;1.80;;
15043;SDS011;7619;48.562;8.910;2023-10-13T15:08:51;1.93;;;1.33;;
15043;SDS011;7619;48.562;8.910;2023-10-13T15:11:21;2.63;;;1.57;;
15043;SDS011;7619;48.562;8.910;2023-10-13T15:13:50;1.93;;;1.73;;
15043;SDS011;7619;48.562;8.910;2023-10-13T15:16:20;1.87;;;1.70;;
15043;SDS011;7619;48.562;8.910;2023-10-13T15:18:48;7.67;;;1.80;;
15043;SDS011;7619;48.562;8.910;2023-10-13T15:21:21;3.03;;;1.47;;
15043;SDS011;7619;48.562;8.910;2023-10-13T15:23:50;2.47;;;1.50;;
15043;SDS011;7619;48.562;8.910;2023-10-13T15:26:18;3.73;;;1.80;;
15043;SDS011;7619;48.562;8.910;2023-10-13T15:28:48;3.43;;;1.50;;
15043;SDS011;7619;48.562;8.910;2023-10-13T15:31:16;2.63;;;1.70;;
15043;SDS011;7619;48.562;8.910;2023-10-13T15:33:52;3.37;;;1.70;;
15043;SDS011;7619;48.562;8.910;2023-10-13T15:36:21;3.10;;;1.70;;
15043;SDS011;7619;48.562;8.910;2023-10-13T15:38:50;2.57;;;1.87;;
15043;SDS011;7619;48.562;8.910;2023-10-13T15:41:22;1.77;;;1.60;;
15043;SDS011;7619;48.562;8.910;2023-10-13T15:43:50;2.63;;;1.60;;
15043;SDS011;7619;48.562;8.910;2023-10-13T15:46:19;2.10;;;1.87;;
15043;SDS011;7619;48.562;8.910;2023-10-13T15:48:48;5.90;;;2.17;;